sensor_id;sensor_type;location;lat;lon;timestamp;temperature;humidity
69084;SHT31;56185;48.526;9.044;2023-10-09T00:00:46;13.70;70.36
69084;SHT31;56185;48.526;9.044;2023-10-09T00:03:12;13.49;71.53
69084;SHT31;56185;48.526;9.044;2023-10-09T00:05:37;13.40;71.80
69084;SHT31;56185;48.526;9.044;2023-10-09T00:08:02;13.55;71.10
69084;SHT31;56185;48.526;9.044;2023-10-09T00:10:28;13.55;71.15
69084;SHT31;56185;48.526;9.044;2023-10-09T00:12:53;13.39;71.69
69084;SHT31;56185;48.526;9.044;2023-10-09T00:15:18;13.26;72.29
69084;SHT31;56185;48.526;9.044;2023-10-09T00:17:44;13.25;72.33
69084;SHT31;56185;48.526;9.044;2023-10-09T00:20:09;13.25;72.66
69084;SHT31;56185;48.526;9.044;2023-10-09T00:22:35;13.16;73.07
69084;SHT31;56185;48.526;9.044;2023-10-09T00:25:00;13.19;72.70
69084;SHT31;56185;48.526;9.044;2023-10-09T00:27:25;13.29;72.27
69084;SHT31;56185;48.526;9.044;2023-10-09T00:29:51;13.28;72.47
69084;SHT31;56185;48.526;9.044;2023-10-09T00:32:16;13.29;72.23
69084;SHT31;56185;48.526;9.044;2023-10-09T00:34:42;13.29;72.15
69084;SHT31;56185;48.526;9.044;2023-10-09T00:37:10;13.22;72.51
69084;SHT31;56185;48.526;9.044;2023-10-09T00:39:36;13.36;71.99
69084;SHT31;56185;48.526;9.044;2023-10-09T00:42:02;13.38;71.52
69084;SHT31;56185;48.526;9.044;2023-10-09T00:44:27;13.34;71.66
69084;SHT31;56185;48.526;9.044;2023-10-09T00:46:52;13.25;72.09
69084;SHT31;56185;48.526;9.044;2023-10-09T00:49:18;13.39;71.51
69084;SHT31;56185;48.526;9.044;2023-10-09T00:51:47;13.20;71.96
69084;SHT31;56185;48.526;9.044;2023-10-09T00:54:14;13.30;71.76
69084;SHT31;56185;48.526;9.044;2023-10-09T00:56:40;13.04;72.65
69084;SHT31;56185;48.526;9.044;2023-10-09T00:59:08;13.15;72.31
69084;SHT31;56185;48.526;9.044;2023-10-09T01:01:35;12.98;72.82
69084;SHT31;56185;48.526;9.044;2023-10-09T01:04:07;12.97;73.12
69084;SHT31;56185;48.526;9.044;2023-10-09T01:06:33;12.84;73.63
69084;SHT31;56185;48.526;9.044;2023-10-09T01:08:58;12.84;73.13
69084;SHT31;56185;48.526;9.044;2023-10-09T01:11:23;12.91;72.80
69084;SHT31;56185;48.526;9.044;2023-10-09T01:13:49;12.92;73.00
69084;SHT31;56185;48.526;9.044;2023-10-09T01:16:17;13.01;72.58
69084;SHT31;56185;48.526;9.044;2023-10-09T01:18:47;12.95;72.47
69084;SHT31;56185;48.526;9.044;2023-10-09T01:21:13;13.07;72.54
69084;SHT31;56185;48.526;9.044;2023-10-09T01:23:45;12.87;72.87
69084;SHT31;56185;48.526;9.044;2023-10-09T01:26:11;12.88;72.92
69084;SHT31;56185;48.526;9.044;2023-10-09T01:28:36;12.88;72.70
69084;SHT31;56185;48.526;9.044;2023-10-09T01:31:01;12.81;73.01
69084;SHT31;56185;48.526;9.044;2023-10-09T01:33:26;12.95;72.53
69084;SHT31;56185;48.526;9.044;2023-10-09T01:35:52;12.89;72.67
69084;SHT31;56185;48.526;9.044;2023-10-09T01:38:17;12.95;72.54
69084;SHT31;56185;48.526;9.044;2023-10-09T01:40:42;12.97;72.57
69084;SHT31;56185;48.526;9.044;2023-10-09T01:43:07;12.91;72.24
69084;SHT31;56185;48.526;9.044;2023-10-09T01:45:32;12.87;72.44
69084;SHT31;56185;48.526;9.044;2023-10-09T01:47:58;12.73;72.69
69084;SHT31;56185;48.526;9.044;2023-10-09T01:50:23;12.71;73.09
69084;SHT31;56185;48.526;9.044;2023-10-09T01:52:49;12.60;73.58
69084;SHT31;56185;48.526;9.044;2023-10-09T01:55:14;12.61;73.67
69084;SHT31;56185;48.526;9.044;2023-10-09T01:57:39;12.58;74.24
69084;SHT31;56185;48.526;9.044;2023-10-09T02:00:06;12.51;74.52
69084;SHT31;56185;48.526;9.044;2023-10-09T02:02:31;12.60;73.94
69084;SHT31;56185;48.526;9.044;2023-10-09T02:05:02;12.73;73.62
69084;SHT31;56185;48.526;9.044;2023-10-09T02:07:27;12.67;74.18
69084;SHT31;56185;48.526;9.044;2023-10-09T02:09:56;12.65;74.17
69084;SHT31;56185;48.526;9.044;2023-10-09T02:12:22;12.61;74.47
69084;SHT31;56185;48.526;9.044;2023-10-09T02:14:47;12.51;74.82
69084;SHT31;56185;48.526;9.044;2023-10-09T02:17:13;12.47;75.24
69084;SHT31;56185;48.526;9.044;2023-10-09T02:19:38;12.56;74.67
69084;SHT31;56185;48.526;9.044;2023-10-09T02:22:03;12.54;74.98
69084;SHT31;56185;48.526;9.044;2023-10-09T02:24:28;12.69;73.92
69084;SHT31;56185;48.526;9.044;2023-10-09T02:26:53;12.65;74.38
69084;SHT31;56185;48.526;9.044;2023-10-09T02:29:19;12.71;73.71
69084;SHT31;56185;48.526;9.044;2023-10-09T02:31:44;12.80;73.40
69084;SHT31;56185;48.526;9.044;2023-10-09T02:34:10;12.76;73.81
69084;SHT31;56185;48.526;9.044;2023-10-09T02:36:36;12.80;73.42
69084;SHT31;56185;48.526;9.044;2023-10-09T02:39:01;12.87;73.01
69084;SHT31;56185;48.526;9.044;2023-10-09T02:41:26;12.84;73.07
69084;SHT31;56185;48.526;9.044;2023-10-09T02:43:51;12.89;73.10
69084;SHT31;56185;48.526;9.044;2023-10-09T02:46:18;12.84;73.08
69084;SHT31;56185;48.526;9.044;2023-10-09T02:48:47;12.85;72.79
69084;SHT31;56185;48.526;9.044;2023-10-09T02:51:13;12.87;72.67
69084;SHT31;56185;48.526;9.044;2023-10-09T02:53:38;12.95;72.33
69084;SHT31;56185;48.526;9.044;2023-10-09T02:56:03;12.80;72.71
69084;SHT31;56185;48.526;9.044;2023-10-09T02:58:29;12.74;72.86
69084;SHT31;56185;48.526;9.044;2023-10-09T03:00:55;12.76;73.23
69084;SHT31;56185;48.526;9.044;2023-10-09T03:03:20;12.77;73.44
69084;SHT31;56185;48.526;9.044;2023-10-09T03:05:45;12.69;73.73
69084;SHT31;56185;48.526;9.044;2023-10-09T03:08:10;12.67;73.98
69084;SHT31;56185;48.526;9.044;2023-10-09T03:10:35;12.57;74.40
69084;SHT31;56185;48.526;9.044;2023-10-09T03:13:01;12.53;74.53
69084;SHT31;56185;48.526;9.044;2023-10-09T03:15:26;12.58;74.29
69084;SHT31;56185;48.526;9.044;2023-10-09T03:17:51;12.69;73.94
69084;SHT31;56185;48.526;9.044;2023-10-09T03:20:17;12.71;73.18
69084;SHT31;56185;48.526;9.044;2023-10-09T03:22:42;12.80;73.27
69084;SHT31;56185;48.526;9.044;2023-10-09T03:25:08;12.76;73.66
69084;SHT31;56185;48.526;9.044;2023-10-09T03:27:33;12.67;73.66
69084;SHT31;56185;48.526;9.044;2023-10-09T03:29:58;12.80;73.35
69084;SHT31;56185;48.526;9.044;2023-10-09T03:32:23;12.74;73.34
69084;SHT31;56185;48.526;9.044;2023-10-09T03:34:49;12.76;73.58
69084;SHT31;56185;48.526;9.044;2023-10-09T03:37:14;12.71;73.44
69084;SHT31;56185;48.526;9.044;2023-10-09T03:39:39;12.56;74.45
69084;SHT31;56185;48.526;9.044;2023-10-09T03:42:04;12.67;73.97
69084;SHT31;56185;48.526;9.044;2023-10-09T03:44:31;12.67;73.77
69084;SHT31;56185;48.526;9.044;2023-10-09T03:46:56;12.73;73.64
69084;SHT31;56185;48.526;9.044;2023-10-09T03:49:21;12.65;73.69
69084;SHT31;56185;48.526;9.044;2023-10-09T03:51:47;12.64;73.88
69084;SHT31;56185;48.526;9.044;2023-10-09T03:54:12;12.76;73.55
69084;SHT31;56185;48.526;9.044;2023-10-09T03:56:37;12.80;73.50
69084;SHT31;56185;48.526;9.044;2023-10-09T03:59:02;12.77;73.73
69084;SHT31;56185;48.526;9.044;2023-10-09T04:01:28;12.73;73.68
69084;SHT31;56185;48.526;9.044;2023-10-09T04:03:53;12.65;74.27
69084;SHT31;56185;48.526;9.044;2023-10-09T04:06:19;12.63;74.10
69084;SHT31;56185;48.526;9.044;2023-10-09T04:08:44;12.67;73.70
69084;SHT31;56185;48.526;9.044;2023-10-09T04:11:09;12.85;73.49
69084;SHT31;56185;48.526;9.044;2023-10-09T04:13:35;12.80;73.47
69084;SHT31;56185;48.526;9.044;2023-10-09T04:16:04;12.88;73.26
69084;SHT31;56185;48.526;9.044;2023-10-09T04:18:29;12.88;73.41
69084;SHT31;56185;48.526;9.044;2023-10-09T04:20:54;12.78;73.76
69084;SHT31;56185;48.526;9.044;2023-10-09T04:23:19;12.74;73.83
69084;SHT31;56185;48.526;9.044;2023-10-09T04:25:45;12.74;74.04
69084;SHT31;56185;48.526;9.044;2023-10-09T04:28:10;12.51;74.82
69084;SHT31;56185;48.526;9.044;2023-10-09T04:30:36;12.61;74.47
69084;SHT31;56185;48.526;9.044;2023-10-09T04:33:02;12.58;74.39
69084;SHT31;56185;48.526;9.044;2023-10-09T04:35:30;12.65;74.04
69084;SHT31;56185;48.526;9.044;2023-10-09T04:37:55;12.61;74.35
69084;SHT31;56185;48.526;9.044;2023-10-09T04:40:20;12.56;74.24
69084;SHT31;56185;48.526;9.044;2023-10-09T04:42:46;12.65;74.30
69084;SHT31;56185;48.526;9.044;2023-10-09T04:45:11;12.64;74.44
69084;SHT31;56185;48.526;9.044;2023-10-09T04:47:36;12.64;74.36
69084;SHT31;56185;48.526;9.044;2023-10-09T04:50:06;12.69;74.25
69084;SHT31;56185;48.526;9.044;2023-10-09T04:52:31;12.58;74.28
69084;SHT31;56185;48.526;9.044;2023-10-09T04:54:57;12.54;74.61
69084;SHT31;56185;48.526;9.044;2023-10-09T04:57:22;12.54;74.64
69084;SHT31;56185;48.526;9.044;2023-10-09T04:59:47;12.50;75.05
69084;SHT31;56185;48.526;9.044;2023-10-09T05:02:13;12.48;74.97
69084;SHT31;56185;48.526;9.044;2023-10-09T05:04:38;12.43;75.15
69084;SHT31;56185;48.526;9.044;2023-10-09T05:07:03;12.54;75.05
69084;SHT31;56185;48.526;9.044;2023-10-09T05:09:28;12.51;74.88
69084;SHT31;56185;48.526;9.044;2023-10-09T05:11:54;12.50;74.60
69084;SHT31;56185;48.526;9.044;2023-10-09T05:14:22;12.58;74.31
69084;SHT31;56185;48.526;9.044;2023-10-09T05:16:47;12.54;74.53
69084;SHT31;56185;48.526;9.044;2023-10-09T05:19:12;12.60;74.59
69084;SHT31;56185;48.526;9.044;2023-10-09T05:21:39;12.60;74.60
69084;SHT31;56185;48.526;9.044;2023-10-09T05:24:05;12.56;74.46
69084;SHT31;56185;48.526;9.044;2023-10-09T05:26:31;12.68;74.20
69084;SHT31;56185;48.526;9.044;2023-10-09T05:28:56;12.67;74.29
69084;SHT31;56185;48.526;9.044;2023-10-09T05:31:21;12.65;74.43
69084;SHT31;56185;48.526;9.044;2023-10-09T05:33:46;12.71;74.22
69084;SHT31;56185;48.526;9.044;2023-10-09T05:36:12;12.78;73.79
69084;SHT31;56185;48.526;9.044;2023-10-09T05:38:37;12.67;74.09
69084;SHT31;56185;48.526;9.044;2023-10-09T05:41:02;12.64;74.23
69084;SHT31;56185;48.526;9.044;2023-10-09T05:43:28;12.76;74.20
69084;SHT31;56185;48.526;9.044;2023-10-09T05:45:53;12.81;73.52
69084;SHT31;56185;48.526;9.044;2023-10-09T05:48:18;12.83;73.19
69084;SHT31;56185;48.526;9.044;2023-10-09T05:50:43;12.88;72.74
69084;SHT31;56185;48.526;9.044;2023-10-09T05:53:09;12.85;72.54
69084;SHT31;56185;48.526;9.044;2023-10-09T05:55:34;12.81;72.58
69084;SHT31;56185;48.526;9.044;2023-10-09T05:57:59;12.67;73.07
69084;SHT31;56185;48.526;9.044;2023-10-09T06:00:26;12.53;73.34
69084;SHT31;56185;48.526;9.044;2023-10-09T06:02:51;12.53;73.61
69084;SHT31;56185;48.526;9.044;2023-10-09T06:05:16;12.58;73.37
69084;SHT31;56185;48.526;9.044;2023-10-09T06:07:47;12.61;73.35
69084;SHT31;56185;48.526;9.044;2023-10-09T06:10:15;12.64;72.97
69084;SHT31;56185;48.526;9.044;2023-10-09T06:12:45;12.53;73.48
69084;SHT31;56185;48.526;9.044;2023-10-09T06:15:12;12.48;73.60
69084;SHT31;56185;48.526;9.044;2023-10-09T06:17:48;12.58;73.44
69084;SHT31;56185;48.526;9.044;2023-10-09T06:20:18;12.56;73.56
69084;SHT31;56185;48.526;9.044;2023-10-09T06:22:49;12.60;73.40
69084;SHT31;56185;48.526;9.044;2023-10-09T06:25:18;12.69;73.56
69084;SHT31;56185;48.526;9.044;2023-10-09T06:27:53;12.71;73.19
69084;SHT31;56185;48.526;9.044;2023-10-09T06:30:24;12.73;73.24
69084;SHT31;56185;48.526;9.044;2023-10-09T06:33:07;12.68;73.73
69084;SHT31;56185;48.526;9.044;2023-10-09T06:35:48;12.80;73.36
69084;SHT31;56185;48.526;9.044;2023-10-09T06:38:13;12.89;73.20
69084;SHT31;56185;48.526;9.044;2023-10-09T06:43:32;12.98;72.95
69084;SHT31;56185;48.526;9.044;2023-10-09T06:45:58;13.07;72.79
69084;SHT31;56185;48.526;9.044;2023-10-09T06:48:24;13.14;72.60
69084;SHT31;56185;48.526;9.044;2023-10-09T06:50:52;13.19;72.10
69084;SHT31;56185;48.526;9.044;2023-10-09T06:53:23;13.12;71.99
69084;SHT31;56185;48.526;9.044;2023-10-09T06:55:54;13.16;71.96
69084;SHT31;56185;48.526;9.044;2023-10-09T06:58:25;13.12;71.90
69084;SHT31;56185;48.526;9.044;2023-10-09T07:00:50;13.09;72.37
69084;SHT31;56185;48.526;9.044;2023-10-09T07:03:17;13.15;72.03
69084;SHT31;56185;48.526;9.044;2023-10-09T07:05:46;13.12;72.27
69084;SHT31;56185;48.526;9.044;2023-10-09T07:08:13;13.11;72.68
69084;SHT31;56185;48.526;9.044;2023-10-09T07:10:39;13.14;72.39
69084;SHT31;56185;48.526;9.044;2023-10-09T07:13:12;13.11;72.39
69084;SHT31;56185;48.526;9.044;2023-10-09T07:15:42;13.23;72.15
69084;SHT31;56185;48.526;9.044;2023-10-09T07:18:10;13.29;72.18
69084;SHT31;56185;48.526;9.044;2023-10-09T07:20:35;13.34;72.47
69084;SHT31;56185;48.526;9.044;2023-10-09T07:23:11;13.38;72.40
69084;SHT31;56185;48.526;9.044;2023-10-09T07:25:36;13.42;72.13
69084;SHT31;56185;48.526;9.044;2023-10-09T07:28:04;13.49;71.55
69084;SHT31;56185;48.526;9.044;2023-10-09T07:30:36;13.53;71.58
69084;SHT31;56185;48.526;9.044;2023-10-09T07:33:06;13.59;71.64
69084;SHT31;56185;48.526;9.044;2023-10-09T07:35:32;13.62;71.08
69084;SHT31;56185;48.526;9.044;2023-10-09T07:37:57;13.60;71.35
69084;SHT31;56185;48.526;9.044;2023-10-09T07:40:22;13.65;71.12
69084;SHT31;56185;48.526;9.044;2023-10-09T07:42:47;13.70;71.13
69084;SHT31;56185;48.526;9.044;2023-10-09T07:45:13;13.78;71.62
69084;SHT31;56185;48.526;9.044;2023-10-09T07:47:38;13.76;71.30
69084;SHT31;56185;48.526;9.044;2023-10-09T07:50:04;13.80;71.89
69084;SHT31;56185;48.526;9.044;2023-10-09T07:52:29;13.88;71.50
69084;SHT31;56185;48.526;9.044;2023-10-09T07:54:54;13.94;72.41
69084;SHT31;56185;48.526;9.044;2023-10-09T07:57:21;13.98;71.83
69084;SHT31;56185;48.526;9.044;2023-10-09T07:59:46;14.01;71.01
69084;SHT31;56185;48.526;9.044;2023-10-09T08:02:11;14.11;70.78
69084;SHT31;56185;48.526;9.044;2023-10-09T08:04:37;14.14;71.01
69084;SHT31;56185;48.526;9.044;2023-10-09T08:07:02;14.18;70.80
69084;SHT31;56185;48.526;9.044;2023-10-09T08:09:27;14.22;71.02
69084;SHT31;56185;48.526;9.044;2023-10-09T08:11:53;14.26;70.94
69084;SHT31;56185;48.526;9.044;2023-10-09T08:14:18;14.38;70.45
69084;SHT31;56185;48.526;9.044;2023-10-09T08:16:43;14.49;70.71
69084;SHT31;56185;48.526;9.044;2023-10-09T08:19:08;14.48;70.64
69084;SHT31;56185;48.526;9.044;2023-10-09T08:21:34;14.59;70.41
69084;SHT31;56185;48.526;9.044;2023-10-09T08:23:59;14.65;70.82
69084;SHT31;56185;48.526;9.044;2023-10-09T08:26:24;14.71;70.64
69084;SHT31;56185;48.526;9.044;2023-10-09T08:28:49;14.83;70.61
69084;SHT31;56185;48.526;9.044;2023-10-09T08:31:16;14.85;71.01
69084;SHT31;56185;48.526;9.044;2023-10-09T08:33:41;14.82;70.91
69084;SHT31;56185;48.526;9.044;2023-10-09T08:36:07;14.97;70.40
69084;SHT31;56185;48.526;9.044;2023-10-09T08:38:32;15.06;69.97
69084;SHT31;56185;48.526;9.044;2023-10-09T08:41:06;15.10;69.93
69084;SHT31;56185;48.526;9.044;2023-10-09T08:43:33;15.16;70.30
69084;SHT31;56185;48.526;9.044;2023-10-09T08:46:00;15.28;69.97
69084;SHT31;56185;48.526;9.044;2023-10-09T08:48:26;15.33;70.18
69084;SHT31;56185;48.526;9.044;2023-10-09T08:50:51;15.34;69.81
69084;SHT31;56185;48.526;9.044;2023-10-09T08:53:16;15.41;70.32
69084;SHT31;56185;48.526;9.044;2023-10-09T08:55:42;15.52;70.07
69084;SHT31;56185;48.526;9.044;2023-10-09T08:58:08;15.64;68.63
69084;SHT31;56185;48.526;9.044;2023-10-09T09:00:34;15.66;68.79
69084;SHT31;56185;48.526;9.044;2023-10-09T09:02:59;15.74;68.89
69084;SHT31;56185;48.526;9.044;2023-10-09T09:05:24;15.86;68.71
69084;SHT31;56185;48.526;9.044;2023-10-09T09:07:50;15.93;69.51
69084;SHT31;56185;48.526;9.044;2023-10-09T09:10:16;16.03;69.46
69084;SHT31;56185;48.526;9.044;2023-10-09T09:12:43;16.17;68.20
69084;SHT31;56185;48.526;9.044;2023-10-09T09:15:15;16.30;68.24
69084;SHT31;56185;48.526;9.044;2023-10-09T09:17:41;16.36;67.82
69084;SHT31;56185;48.526;9.044;2023-10-09T09:20:25;16.49;68.20
69084;SHT31;56185;48.526;9.044;2023-10-09T09:22:54;16.51;68.31
69084;SHT31;56185;48.526;9.044;2023-10-09T09:25:20;16.65;68.63
69084;SHT31;56185;48.526;9.044;2023-10-09T09:27:46;16.75;68.44
69084;SHT31;56185;48.526;9.044;2023-10-09T09:30:22;16.82;68.68
69084;SHT31;56185;48.526;9.044;2023-10-09T09:32:47;16.94;68.73
69084;SHT31;56185;48.526;9.044;2023-10-09T09:35:19;17.07;68.71
69084;SHT31;56185;48.526;9.044;2023-10-09T09:37:52;17.18;67.96
69084;SHT31;56185;48.526;9.044;2023-10-09T09:40:17;17.32;68.20
69084;SHT31;56185;48.526;9.044;2023-10-09T09:42:43;17.38;68.22
69084;SHT31;56185;48.526;9.044;2023-10-09T09:45:09;17.43;67.82
69084;SHT31;56185;48.526;9.044;2023-10-09T09:47:34;17.59;67.12
69084;SHT31;56185;48.526;9.044;2023-10-09T09:50:01;17.76;67.21
69084;SHT31;56185;48.526;9.044;2023-10-09T09:52:29;17.91;66.57
69084;SHT31;56185;48.526;9.044;2023-10-09T09:54:54;18.01;66.04
69084;SHT31;56185;48.526;9.044;2023-10-09T09:57:23;18.17;65.03
69084;SHT31;56185;48.526;9.044;2023-10-09T09:59:49;18.24;64.95
69084;SHT31;56185;48.526;9.044;2023-10-09T10:02:18;18.37;64.84
69084;SHT31;56185;48.526;9.044;2023-10-09T10:04:45;18.48;65.52
69084;SHT31;56185;48.526;9.044;2023-10-09T10:07:10;18.58;64.93
69084;SHT31;56185;48.526;9.044;2023-10-09T10:09:37;18.79;64.55
69084;SHT31;56185;48.526;9.044;2023-10-09T10:12:02;18.97;65.00
69084;SHT31;56185;48.526;9.044;2023-10-09T10:14:54;19.32;63.78
69084;SHT31;56185;48.526;9.044;2023-10-09T10:17:20;19.54;62.85
69084;SHT31;56185;48.526;9.044;2023-10-09T10:22:23;20.08;61.65
69084;SHT31;56185;48.526;9.044;2023-10-09T10:24:49;20.23;59.10
69084;SHT31;56185;48.526;9.044;2023-10-09T10:27:14;20.39;59.03
69084;SHT31;56185;48.526;9.044;2023-10-09T10:29:40;20.51;58.38
69084;SHT31;56185;48.526;9.044;2023-10-09T10:32:05;20.64;59.06
69084;SHT31;56185;48.526;9.044;2023-10-09T10:37:11;20.94;57.99
69084;SHT31;56185;48.526;9.044;2023-10-09T10:39:49;21.11;57.45
69084;SHT31;56185;48.526;9.044;2023-10-09T10:42:15;21.18;55.71
69084;SHT31;56185;48.526;9.044;2023-10-09T10:44:40;21.28;53.58
69084;SHT31;56185;48.526;9.044;2023-10-09T10:47:10;21.45;52.88
69084;SHT31;56185;48.526;9.044;2023-10-09T10:49:36;21.59;51.73
69084;SHT31;56185;48.526;9.044;2023-10-09T10:52:01;21.76;50.98
69084;SHT31;56185;48.526;9.044;2023-10-09T10:54:26;21.82;50.84
69084;SHT31;56185;48.526;9.044;2023-10-09T10:56:52;21.98;48.93
69084;SHT31;56185;48.526;9.044;2023-10-09T10:59:20;22.00;49.23
69084;SHT31;56185;48.526;9.044;2023-10-09T11:01:45;22.07;49.29
69084;SHT31;56185;48.526;9.044;2023-10-09T11:04:11;22.15;47.98
69084;SHT31;56185;48.526;9.044;2023-10-09T11:06:37;22.14;48.39
69084;SHT31;56185;48.526;9.044;2023-10-09T11:09:03;22.27;47.35
69084;SHT31;56185;48.526;9.044;2023-10-09T11:11:29;22.24;46.75
69084;SHT31;56185;48.526;9.044;2023-10-09T11:13:54;22.30;46.39
69084;SHT31;56185;48.526;9.044;2023-10-09T11:16:19;22.27;46.99
69084;SHT31;56185;48.526;9.044;2023-10-09T11:18:45;22.31;46.95
69084;SHT31;56185;48.526;9.044;2023-10-09T11:21:10;22.38;46.61
69084;SHT31;56185;48.526;9.044;2023-10-09T11:23:35;22.42;46.46
69084;SHT31;56185;48.526;9.044;2023-10-09T11:26:03;22.42;46.42
69084;SHT31;56185;48.526;9.044;2023-10-09T11:28:28;22.42;46.46
69084;SHT31;56185;48.526;9.044;2023-10-09T11:30:54;22.49;46.13
69084;SHT31;56185;48.526;9.044;2023-10-09T11:33:19;22.52;46.49
69084;SHT31;56185;48.526;9.044;2023-10-09T11:35:54;22.66;46.26
69084;SHT31;56185;48.526;9.044;2023-10-09T11:38:20;22.72;46.57
69084;SHT31;56185;48.526;9.044;2023-10-09T11:40:45;22.79;46.43
69084;SHT31;56185;48.526;9.044;2023-10-09T11:43:10;22.81;45.66
69084;SHT31;56185;48.526;9.044;2023-10-09T11:45:36;22.86;45.59
69084;SHT31;56185;48.526;9.044;2023-10-09T11:48:16;22.76;45.49
69084;SHT31;56185;48.526;9.044;2023-10-09T11:50:43;22.82;46.12
69084;SHT31;56185;48.526;9.044;2023-10-09T11:53:10;22.81;45.17
69084;SHT31;56185;48.526;9.044;2023-10-09T11:55:36;22.75;46.01
69084;SHT31;56185;48.526;9.044;2023-10-09T11:58:02;22.69;46.20
69084;SHT31;56185;48.526;9.044;2023-10-09T12:00:28;22.72;46.11
69084;SHT31;56185;48.526;9.044;2023-10-09T12:02:53;22.73;45.58
69084;SHT31;56185;48.526;9.044;2023-10-09T12:05:18;22.73;45.74
69084;SHT31;56185;48.526;9.044;2023-10-09T12:07:45;22.75;45.76
69084;SHT31;56185;48.526;9.044;2023-10-09T12:10:10;22.73;46.29
69084;SHT31;56185;48.526;9.044;2023-10-09T12:12:35;22.77;45.65
69084;SHT31;56185;48.526;9.044;2023-10-09T12:15:01;22.72;45.24
69084;SHT31;56185;48.526;9.044;2023-10-09T12:17:26;22.76;45.22
69084;SHT31;56185;48.526;9.044;2023-10-09T12:19:52;22.68;46.42
69084;SHT31;56185;48.526;9.044;2023-10-09T12:22:18;22.68;45.48
69084;SHT31;56185;48.526;9.044;2023-10-09T12:24:43;22.71;45.69
69084;SHT31;56185;48.526;9.044;2023-10-09T12:27:09;22.73;46.31
69084;SHT31;56185;48.526;9.044;2023-10-09T12:29:34;22.63;45.85
69084;SHT31;56185;48.526;9.044;2023-10-09T12:32:00;22.71;46.61
69084;SHT31;56185;48.526;9.044;2023-10-09T12:34:25;22.72;46.93
69084;SHT31;56185;48.526;9.044;2023-10-09T12:36:50;22.79;46.61
69084;SHT31;56185;48.526;9.044;2023-10-09T12:39:16;22.89;47.18
69084;SHT31;56185;48.526;9.044;2023-10-09T12:41:41;23.02;45.32
69084;SHT31;56185;48.526;9.044;2023-10-09T12:44:06;22.95;45.16
69084;SHT31;56185;48.526;9.044;2023-10-09T12:46:31;23.12;45.54
69084;SHT31;56185;48.526;9.044;2023-10-09T12:48:57;23.21;45.48
69084;SHT31;56185;48.526;9.044;2023-10-09T12:51:22;23.33;45.89
69084;SHT31;56185;48.526;9.044;2023-10-09T12:53:48;23.44;44.84
69084;SHT31;56185;48.526;9.044;2023-10-09T12:56:13;23.55;44.91
69084;SHT31;56185;48.526;9.044;2023-10-09T12:58:38;23.65;44.05
69084;SHT31;56185;48.526;9.044;2023-10-09T13:01:05;23.72;43.95
69084;SHT31;56185;48.526;9.044;2023-10-09T13:03:30;23.74;43.61
69084;SHT31;56185;48.526;9.044;2023-10-09T13:05:55;23.89;43.96
69084;SHT31;56185;48.526;9.044;2023-10-09T13:08:24;24.06;43.86
69084;SHT31;56185;48.526;9.044;2023-10-09T13:10:51;24.26;42.45
69084;SHT31;56185;48.526;9.044;2023-10-09T13:13:16;24.37;42.48
69084;SHT31;56185;48.526;9.044;2023-10-09T13:15:42;24.53;42.07
69084;SHT31;56185;48.526;9.044;2023-10-09T13:18:07;24.63;41.17
69084;SHT31;56185;48.526;9.044;2023-10-09T13:20:33;24.83;41.16
69084;SHT31;56185;48.526;9.044;2023-10-09T13:22:58;24.83;40.64
69084;SHT31;56185;48.526;9.044;2023-10-09T13:25:23;24.94;40.87
69084;SHT31;56185;48.526;9.044;2023-10-09T13:27:48;25.08;40.63
69084;SHT31;56185;48.526;9.044;2023-10-09T13:30:18;25.22;40.71
69084;SHT31;56185;48.526;9.044;2023-10-09T13:32:43;25.29;40.81
69084;SHT31;56185;48.526;9.044;2023-10-09T13:35:08;25.32;39.76
69084;SHT31;56185;48.526;9.044;2023-10-09T13:37:34;25.46;39.28
69084;SHT31;56185;48.526;9.044;2023-10-09T13:39:59;25.50;38.47
69084;SHT31;56185;48.526;9.044;2023-10-09T13:42:24;25.52;38.81
69084;SHT31;56185;48.526;9.044;2023-10-09T13:44:49;25.73;38.65
69084;SHT31;56185;48.526;9.044;2023-10-09T13:47:15;25.80;38.33
69084;SHT31;56185;48.526;9.044;2023-10-09T13:49:40;25.73;37.62
69084;SHT31;56185;48.526;9.044;2023-10-09T13:52:05;25.77;37.38
69084;SHT31;56185;48.526;9.044;2023-10-09T13:54:31;25.69;36.40
69084;SHT31;56185;48.526;9.044;2023-10-09T13:56:56;25.75;36.75
69084;SHT31;56185;48.526;9.044;2023-10-09T13:59:21;25.58;32.55
69084;SHT31;56185;48.526;9.044;2023-10-09T14:01:48;25.55;31.57
69084;SHT31;56185;48.526;9.044;2023-10-09T14:04:13;25.58;31.69
69084;SHT31;56185;48.526;9.044;2023-10-09T14:06:38;25.52;32.74
69084;SHT31;56185;48.526;9.044;2023-10-09T14:09:04;25.56;33.72
69084;SHT31;56185;48.526;9.044;2023-10-09T14:11:32;25.36;33.08
69084;SHT31;56185;48.526;9.044;2023-10-09T14:13:58;25.36;33.11
69084;SHT31;56185;48.526;9.044;2023-10-09T14:16:23;25.27;31.99
69084;SHT31;56185;48.526;9.044;2023-10-09T14:18:50;25.25;31.62
69084;SHT31;56185;48.526;9.044;2023-10-09T14:21:15;25.22;33.14
69084;SHT31;56185;48.526;9.044;2023-10-09T14:23:44;25.21;33.13
69084;SHT31;56185;48.526;9.044;2023-10-09T14:26:09;25.18;34.20
69084;SHT31;56185;48.526;9.044;2023-10-09T14:28:34;25.14;34.47
69084;SHT31;56185;48.526;9.044;2023-10-09T14:30:59;25.08;34.70
69084;SHT31;56185;48.526;9.044;2023-10-09T14:33:26;25.05;35.18
69084;SHT31;56185;48.526;9.044;2023-10-09T14:35:51;24.97;35.71
69084;SHT31;56185;48.526;9.044;2023-10-09T14:38:16;24.94;36.65
69084;SHT31;56185;48.526;9.044;2023-10-09T14:40:42;24.90;37.39
69084;SHT31;56185;48.526;9.044;2023-10-09T14:43:09;24.84;37.17
69084;SHT31;56185;48.526;9.044;2023-10-09T14:45:37;24.76;37.88
69084;SHT31;56185;48.526;9.044;2023-10-09T14:48:02;24.68;37.94
69084;SHT31;56185;48.526;9.044;2023-10-09T14:50:28;24.70;38.14
69084;SHT31;56185;48.526;9.044;2023-10-09T14:52:53;24.68;37.10
69084;SHT31;56185;48.526;9.044;2023-10-09T14:55:18;24.76;37.73
69084;SHT31;56185;48.526;9.044;2023-10-09T14:57:43;24.78;36.89
69084;SHT31;56185;48.526;9.044;2023-10-09T15:00:09;24.78;37.81
69084;SHT31;56185;48.526;9.044;2023-10-09T15:02:34;24.84;37.43
69084;SHT31;56185;48.526;9.044;2023-10-09T15:05:00;24.90;36.93
69084;SHT31;56185;48.526;9.044;2023-10-09T15:07:25;24.87;36.98
69084;SHT31;56185;48.526;9.044;2023-10-09T15:09:50;24.87;37.39
69084;SHT31;56185;48.526;9.044;2023-10-09T15:12:16;24.91;37.46
69084;SHT31;56185;48.526;9.044;2023-10-09T15:14:42;24.80;37.15
69084;SHT31;56185;48.526;9.044;2023-10-09T15:17:07;24.92;38.12
69084;SHT31;56185;48.526;9.044;2023-10-09T15:19:32;24.86;36.77
69084;SHT31;56185;48.526;9.044;2023-10-09T15:21:58;24.91;36.21
69084;SHT31;56185;48.526;9.044;2023-10-09T15:24:24;24.76;37.41
69084;SHT31;56185;48.526;9.044;2023-10-09T15:26:49;24.68;38.13
69084;SHT31;56185;48.526;9.044;2023-10-09T15:29:15;24.68;37.63
69084;SHT31;56185;48.526;9.044;2023-10-09T15:31:40;24.59;37.90